Onweer radar Meer informatie blitzortung!


Regen radar Meer informatie rain snow radar


Andere websites:

Template documentation
and downloads

And another site

Weather-Template Info-Forum

Webcam-Havenmond

Webcam-Havenkantoor

Webcam-Werkhaven

Webcam-Westhaven



Het weer levert geen direct gevaar op.    Er zijn geen waarschuwingen afgegeven.

METAR rapporten vliegvelden

   
EBAW - Antwerp
Gewijzigd: 18-06-2018 03:20
Bewolking  
Bewolking  
   Wind: ZZW 9.3 km/h
Wind: ZZW 9.3 km/h
Temperatuur: 16°C
Dauwpunt: 11°C
Vochtigheid: 72%
Barometer: 1019 hPa
Bewolking: Bewolking
Zicht: meer dan 10 km
Bewolking: Licht bewolkt 2100 ft,
Bewolking 2400 ft
EBAW 180120Z AUTO 21005KT 9999 // FEW021/// OVC024/// 16/11 Q1019
EBLG - Li├Ęge
Gewijzigd: 18-06-2018 03:20
Grotendeels bewolkt  
Grotendeels bewolkt  
   Wind: Zuiden 11.1 km/h
Wind: Zuiden 11.1 km/h
Temperatuur: 15°C
Dauwpunt: 11°C
Vochtigheid: 77%
Barometer: 1020 hPa
Bewolking: Grotendeels bewolkt
Zicht: meer dan 10 km
Bewolking: Grotendeels bewolkt 4400 ft
EBLG 180120Z 19006KT 9999 BKN044 15/11 Q1020 NOSIG
EBCV - Mons/Bergen
Gewijzigd: 18-06-2018 03:25
Bewolking  
Bewolking  
   Wind: Zuiden 11.1 km/h
Wind: Zuiden 11.1 km/h
Temperatuur: 14°C
Dauwpunt: 12°C
Vochtigheid: 88%
Barometer: 1020 hPa
Bewolking: Bewolking
Zicht: meer dan 10 km
Bewolking: Gedeeltelijk bewolkt 3200 ft,
Bewolking 4900 ft
EBCV 180125Z AUTO 18006KT 9999 SCT032/// OVC049/// 14/12 Q1020 BLU
EHBK - Maastricht
Gewijzigd: 18-06-2018 03:25
Bewolking  
Bewolking  
   Wind: Zuiden 11.1 km/h
Wind: Zuiden 11.1 km/h
Temperatuur: 15°C
Dauwpunt: 11°C
Vochtigheid: 77%
Barometer: 1019 hPa
Bewolking: Bewolking
Zicht: meer dan 10 km
Bewolking: Licht bewolkt 3500 ft,
Gedeeltelijk bewolkt 4000 ft,
Bewolking 4500 ft
EHBK 180125Z AUTO 19006KT 9999 FEW035 SCT040 OVC045 15/11 Q1019
ELLX - Luxemburg
Gewijzigd: 18-06-2018 03:20
Bewolking  
Bewolking  
   Wind: Zuiden 5.6 km/h
Wind: Zuiden 5.6 km/h
Temperatuur: 14°C
Dauwpunt: 10°C
Vochtigheid: 77%
Barometer: 1022 hPa
Bewolking: Bewolking
Zicht: meer dan 10 km
Bewolking: Bewolking 9700 ft
ELLX 180120Z AUTO 19003KT 9999 OVC097/// 14/10 Q1022 NOSIG
EBOS - Oostende
Gewijzigd: 18-06-2018 03:20
Grotendeels bewolkt  
Grotendeels bewolkt  
   Wind: ZZW 16.7 km/h
Wind: ZZW 16.7 km/h
Temperatuur: 14°C
Dauwpunt: 12°C
Vochtigheid: 88%
Barometer: 1019 hPa
Bewolking: Grotendeels bewolkt
Zicht: meer dan 10 km
Bewolking: Licht bewolkt 600 ft,
Grotendeels bewolkt 1200 ft,
Grotendeels bewolkt 1500 ft
EBOS 180120Z 21009KT 9999 FEW006 BKN012 BKN015 14/12 Q1019 TEMPO 3000 -DZ BKN006

Script ontwikkeld door  Saratoga-weather.org Aangepast voor de template door  Weerstation Leuven

U vindt ons ook hier:

Het Weer Aktueel

European Weather Network

WeatherCloud

Weather Underground

Benelux Weer Netwerk

AWEKAS

Apparatuur in gebruik:

Weerstation
Davis VP2

Weerprogramma
Meteohub

Weercomputer
My Computer

Webleverancier
My provider

Davis VP2

Meteohub

My Computer

My provider